createdAt,value
2022-10-11T00:04:08.561Z,16.70
2022-10-11T00:06:39.135Z,22.40
2022-10-11T00:09:09.097Z,22.80
2022-10-11T00:11:40.189Z,19.70
2022-10-11T00:14:11.385Z,20.10
2022-10-11T00:16:45.019Z,23.60
2022-10-11T00:19:14.753Z,21.50
2022-10-11T00:21:45.295Z,18.20
2022-10-11T00:24:16.706Z,19.80
2022-10-11T00:26:47.107Z,18.20
2022-10-11T00:29:17.349Z,15.00
2022-10-11T00:31:47.136Z,16.00
2022-10-11T00:34:19.392Z,17.70
2022-10-11T00:36:49.282Z,15.50
2022-10-11T00:39:20.325Z,16.40
2022-10-11T00:41:52.261Z,15.80
2022-10-11T00:44:27.338Z,16.80
2022-10-11T00:47:10.016Z,16.80
2022-10-11T00:49:46.548Z,19.40
2022-10-11T00:52:35.520Z,15.60
2022-10-11T00:55:13.458Z,15.60
2022-10-11T00:57:48.386Z,15.20
2022-10-11T01:00:20.273Z,20.80
2022-10-11T01:02:52.258Z,15.00
2022-10-11T01:05:29.667Z,18.60
2022-10-11T01:08:01.935Z,15.30
2022-10-11T01:10:33.017Z,12.50
2022-10-11T01:13:37.683Z,18.00
2022-10-11T01:16:17.384Z,22.60
2022-10-11T01:19:14.528Z,20.80
2022-10-11T01:21:53.521Z,22.20
2022-10-11T01:24:58.224Z,22.50
2022-10-11T01:27:33.233Z,16.80
2022-10-11T01:30:24.254Z,20.10
2022-10-11T01:33:14.919Z,16.60
2022-10-11T01:36:30.526Z,17.30
2022-10-11T01:39:17.307Z,17.80
2022-10-11T01:41:52.432Z,15.60
2022-10-11T01:44:25.647Z,13.50
2022-10-11T01:46:55.366Z,19.10
2022-10-11T01:49:25.107Z,19.30
2022-10-11T01:51:57.393Z,19.70
2022-10-11T01:54:56.548Z,16.10
2022-10-11T01:57:59.787Z,20.00
2022-10-11T02:00:42.342Z,16.80
2022-10-11T02:03:35.218Z,17.50
2022-10-11T02:06:09.199Z,19.40
2022-10-11T02:08:43.129Z,15.90
2022-10-11T02:11:29.447Z,15.60
2022-10-11T02:14:05.495Z,18.00
2022-10-11T02:16:49.186Z,19.80
2022-10-11T02:19:21.319Z,20.20
2022-10-11T02:21:57.808Z,18.90
2022-10-11T02:24:34.348Z,14.30
2022-10-11T02:27:06.659Z,18.60
2022-10-11T02:29:40.371Z,15.30
2022-10-11T02:32:12.194Z,19.80
2022-10-11T02:34:47.611Z,15.00
2022-10-11T02:37:36.938Z,13.50
2022-10-11T02:40:28.512Z,16.10
2022-10-11T02:43:04.185Z,15.50
2022-10-11T02:45:40.206Z,15.30
2022-10-11T02:48:11.911Z,11.90
2022-10-11T02:50:42.020Z,13.50
2022-10-11T02:55:40.121Z,13.40
2022-10-11T02:58:09.574Z,13.10
2022-10-11T03:00:38.398Z,13.20
2022-10-11T03:03:08.887Z,16.30
2022-10-11T03:05:42.184Z,17.00
2022-10-11T03:08:14.428Z,17.20
2022-10-11T03:10:44.206Z,17.30
2022-10-11T03:13:17.865Z,15.20
2022-10-11T03:16:02.341Z,12.50
2022-10-11T03:18:33.172Z,15.80
2022-10-11T03:21:04.840Z,14.40
2022-10-11T03:23:34.798Z,14.30
2022-10-11T03:26:05.002Z,15.00
2022-10-11T03:28:34.270Z,15.20
2022-10-11T03:31:04.040Z,18.80
2022-10-11T03:33:33.363Z,19.40
2022-10-11T03:36:03.561Z,17.30
2022-10-11T03:38:33.121Z,17.80
2022-10-11T03:41:03.032Z,14.10
2022-10-11T03:43:32.451Z,12.70
2022-10-11T03:46:02.165Z,13.20
2022-10-11T03:50:59.875Z,12.10
2022-10-11T03:53:28.745Z,16.00
2022-10-11T03:55:58.092Z,15.50
2022-10-11T03:58:27.593Z,14.60
2022-10-11T04:00:56.571Z,14.20
2022-10-11T04:03:25.114Z,14.70
2022-10-11T04:05:53.682Z,15.20
2022-10-11T04:08:22.566Z,16.80
2022-10-11T04:10:51.916Z,12.70
2022-10-11T04:13:21.257Z,20.10
2022-10-11T04:15:50.072Z,16.20
2022-10-11T04:18:18.868Z,18.10
2022-10-11T04:20:47.756Z,18.40
2022-10-11T04:23:16.971Z,17.30
2022-10-11T04:25:46.041Z,15.20
2022-10-11T04:28:15.629Z,20.00
2022-10-11T04:30:44.693Z,17.00
2022-10-11T04:33:13.340Z,14.60
2022-10-11T04:35:42.033Z,16.90
2022-10-11T04:38:10.928Z,15.60
2022-10-11T04:40:40.432Z,13.80
2022-10-11T04:43:09.414Z,13.90
2022-10-11T04:45:39.335Z,13.70
2022-10-11T04:48:08.642Z,13.10
2022-10-11T04:50:38.147Z,12.30
2022-10-11T04:53:10.419Z,15.40
2022-10-11T04:55:39.666Z,16.70
2022-10-11T04:58:08.242Z,15.60
2022-10-11T05:00:40.992Z,16.70
2022-10-11T05:03:12.455Z,14.40
2022-10-11T05:05:41.731Z,16.90
2022-10-11T05:08:10.826Z,17.00
2022-10-11T05:10:39.718Z,11.20
2022-10-11T05:13:08.673Z,15.90
2022-10-11T05:15:37.601Z,15.40
2022-10-11T05:18:07.709Z,16.10
2022-10-11T05:20:36.898Z,16.60
2022-10-11T05:23:05.923Z,19.90
2022-10-11T05:25:35.702Z,16.00
2022-10-11T05:28:04.602Z,17.10
2022-10-11T05:30:33.716Z,14.50
2022-10-11T05:33:02.995Z,11.70
2022-10-11T05:35:31.559Z,12.50
2022-10-11T05:38:00.157Z,13.40
2022-10-11T05:40:29.407Z,25.10
2022-10-11T05:42:58.061Z,24.20
2022-10-11T05:45:26.957Z,23.50
2022-10-11T05:47:56.024Z,19.90
2022-10-11T05:50:24.871Z,22.70
2022-10-11T05:52:53.453Z,18.30
2022-10-11T05:55:22.084Z,22.00
2022-10-11T05:57:56.595Z,16.60
2022-10-11T06:00:26.559Z,22.60
2022-10-11T06:02:55.925Z,18.40
2022-10-11T06:05:25.220Z,19.70
2022-10-11T06:07:54.901Z,20.60
2022-10-11T06:10:24.386Z,14.50
2022-10-11T06:12:53.434Z,13.60
2022-10-11T06:15:22.222Z,15.10
2022-10-11T06:17:53.160Z,21.90
2022-10-11T06:20:21.641Z,22.80
2022-10-11T06:22:50.431Z,19.20
2022-10-11T06:25:19.009Z,22.40
2022-10-11T06:27:47.657Z,24.00
2022-10-11T06:30:17.171Z,19.70
2022-10-11T06:32:45.988Z,17.80
2022-10-11T06:35:15.290Z,17.70
2022-10-11T06:37:44.182Z,19.00
2022-10-11T06:40:13.368Z,18.00
2022-10-11T06:42:42.051Z,17.10
2022-10-11T06:45:10.950Z,19.70
2022-10-11T06:47:39.946Z,18.50
2022-10-11T06:50:09.183Z,19.80
2022-10-11T06:52:37.929Z,18.60
2022-10-11T06:55:07.700Z,17.30
2022-10-11T06:57:36.433Z,16.10
2022-10-11T07:00:10.319Z,18.40
2022-10-11T07:02:41.556Z,16.30
2022-10-11T07:05:10.981Z,16.30
2022-10-11T07:07:40.079Z,15.10
2022-10-11T07:10:09.540Z,16.00
2022-10-11T07:12:38.161Z,20.40
2022-10-11T07:15:07.527Z,12.50
2022-10-11T07:17:36.126Z,14.90
2022-10-11T07:20:07.024Z,14.30
2022-10-11T07:22:36.182Z,13.60
2022-10-11T07:25:05.442Z,12.80
2022-10-11T07:27:34.172Z,14.70
2022-10-11T07:30:02.964Z,13.20
2022-10-11T07:32:31.947Z,14.50
2022-10-11T07:35:01.258Z,10.20
2022-10-11T07:37:30.022Z,11.90
2022-10-11T07:39:58.925Z,10.70
2022-10-11T07:42:27.919Z,12.10
2022-10-11T07:44:56.602Z,9.60
2022-10-11T07:47:25.219Z,9.90
2022-10-11T07:49:56.704Z,10.60
2022-10-11T07:52:27.980Z,11.70
2022-10-11T07:54:57.391Z,9.50
2022-10-11T07:57:25.974Z,11.90
2022-10-11T07:59:55.169Z,8.70
2022-10-11T08:02:24.109Z,12.90
2022-10-11T08:04:53.266Z,11.20
2022-10-11T08:07:25.723Z,10.50
2022-10-11T08:09:54.520Z,8.90
2022-10-11T08:12:23.490Z,10.00
2022-10-11T08:15:00.421Z,13.40
2022-10-11T08:17:31.438Z,10.10
2022-10-11T08:20:00.296Z,9.50
2022-10-11T08:22:29.042Z,10.50
2022-10-11T08:24:57.824Z,9.50
2022-10-11T08:27:26.677Z,10.00
2022-10-11T08:29:55.470Z,9.50
2022-10-11T08:32:24.002Z,9.70
2022-10-11T08:34:53.249Z,9.50
2022-10-11T08:37:21.940Z,10.00
2022-10-11T08:39:50.634Z,8.90
2022-10-11T08:42:35.843Z,9.80
2022-10-11T08:45:11.842Z,7.40
2022-10-11T08:47:44.637Z,7.70
2022-10-11T08:50:20.242Z,10.40
2022-10-11T08:52:54.374Z,10.60
2022-10-11T08:55:32.604Z,8.60
2022-10-11T08:58:02.531Z,7.30
2022-10-11T09:00:34.430Z,7.60
2022-10-11T09:03:22.315Z,10.60
2022-10-11T09:06:21.706Z,7.70
2022-10-11T09:09:06.594Z,6.20
2022-10-11T09:11:47.871Z,8.40
2022-10-11T09:14:31.469Z,7.30
2022-10-11T09:17:26.398Z,7.50
2022-10-11T09:20:03.895Z,8.10
2022-10-11T09:22:49.168Z,7.10
2022-10-11T09:25:52.877Z,9.10
2022-10-11T09:28:47.895Z,7.30
2022-10-11T09:31:17.279Z,7.90
2022-10-11T09:33:50.485Z,6.80
2022-10-11T09:36:38.181Z,8.30
2022-10-11T09:39:48.708Z,6.60
2022-10-11T09:42:17.502Z,8.10
2022-10-11T09:44:55.651Z,6.70
2022-10-11T09:47:29.393Z,7.60
2022-10-11T09:50:01.915Z,8.30
2022-10-11T09:52:31.364Z,6.20
2022-10-11T09:55:02.078Z,9.00
2022-10-11T09:57:37.801Z,7.70
2022-10-11T10:00:27.490Z,8.20
2022-10-11T10:03:01.872Z,8.60
2022-10-11T10:05:37.226Z,7.50
2022-10-11T10:08:23.067Z,9.10
2022-10-11T10:11:04.568Z,8.70
2022-10-11T10:13:45.736Z,11.20
2022-10-11T10:16:29.941Z,14.10
2022-10-11T10:19:02.366Z,11.30
2022-10-11T10:21:43.719Z,9.80
2022-10-11T10:24:36.883Z,12.00
2022-10-11T10:27:11.401Z,12.00
2022-10-11T10:29:41.275Z,14.00
2022-10-11T10:32:14.916Z,13.90
2022-10-11T10:35:03.235Z,15.20
2022-10-11T10:38:06.971Z,14.80
2022-10-11T10:40:41.507Z,16.60
2022-10-11T10:43:15.871Z,15.70
2022-10-11T10:46:09.217Z,14.20
2022-10-11T10:52:28.672Z,19.10
2022-10-11T10:55:08.032Z,16.40
2022-10-11T10:57:39.313Z,19.20
2022-10-11T11:00:14.071Z,18.90
2022-10-11T11:02:55.474Z,16.80
2022-10-11T11:05:55.795Z,17.00
2022-10-11T11:08:52.057Z,16.30
2022-10-11T11:11:44.054Z,15.80
2022-10-11T11:15:03.130Z,16.10
2022-10-11T11:17:42.154Z,16.20
2022-10-11T11:20:47.704Z,14.20
2022-10-11T11:23:34.517Z,12.90
2022-10-11T11:26:03.901Z,14.10
2022-10-11T11:28:38.627Z,14.60
2022-10-11T11:31:41.320Z,13.50
2022-10-11T11:34:25.051Z,11.40
2022-10-11T11:36:56.821Z,10.00
2022-10-11T11:39:36.565Z,15.10
2022-10-11T11:44:47.353Z,10.30
2022-10-11T11:47:34.367Z,9.40
2022-10-11T11:50:28.656Z,10.50
2022-10-11T11:53:05.553Z,9.90
2022-10-11T11:55:43.763Z,11.70
2022-10-11T11:58:37.203Z,11.10
2022-10-11T12:01:34.051Z,10.70
2022-10-11T12:04:35.198Z,10.90
2022-10-11T12:07:16.328Z,11.90
2022-10-11T12:09:52.342Z,11.70
2022-10-11T12:12:38.448Z,12.70
2022-10-11T12:15:10.481Z,11.20
2022-10-11T12:18:02.335Z,10.30
2022-10-11T12:20:41.057Z,11.50
2022-10-11T12:23:35.242Z,7.50
2022-10-11T12:26:42.955Z,11.40
2022-10-11T12:29:17.593Z,9.50
2022-10-11T12:31:49.771Z,9.80
2022-10-11T12:37:31.936Z,7.20
2022-10-11T12:40:01.143Z,9.40
2022-10-11T12:42:33.502Z,8.00
2022-10-11T12:45:22.236Z,8.70
2022-10-11T12:48:07.951Z,6.90
2022-10-11T12:50:44.410Z,7.30
2022-10-11T12:54:07.944Z,7.50
2022-10-11T12:56:48.546Z,6.40
2022-10-11T12:59:21.437Z,10.30
2022-10-11T13:01:54.413Z,8.40
2022-10-11T13:04:27.187Z,7.50
2022-10-11T13:07:06.876Z,7.90
2022-10-11T13:09:45.342Z,8.00
2022-10-11T13:12:21.951Z,9.10
2022-10-11T13:15:10.237Z,10.10
2022-10-11T13:17:40.106Z,7.80
2022-10-11T13:20:18.506Z,7.20
2022-10-11T13:22:50.336Z,6.50
2022-10-11T13:25:37.887Z,8.80
2022-10-11T13:28:09.685Z,8.40
2022-10-11T13:30:44.375Z,7.10
2022-10-11T13:33:35.915Z,8.40
2022-10-11T13:36:09.150Z,8.20
2022-10-11T13:38:37.773Z,7.80
2022-10-11T13:41:10.324Z,9.80
2022-10-11T13:43:41.108Z,7.80
2022-10-11T13:46:19.826Z,7.70
2022-10-11T13:48:58.446Z,7.70
2022-10-11T13:51:34.912Z,12.80
2022-10-11T13:54:11.703Z,11.10
2022-10-11T13:56:50.282Z,11.20
2022-10-11T13:59:22.950Z,9.90
2022-10-11T14:01:59.034Z,10.70
2022-10-11T14:04:29.881Z,12.20
2022-10-11T14:07:02.813Z,10.10
2022-10-11T14:09:39.107Z,10.80
2022-10-11T14:12:31.174Z,7.80
2022-10-11T14:15:01.782Z,8.40
2022-10-11T14:17:40.739Z,7.50
2022-10-11T14:20:13.838Z,7.90
2022-10-11T14:22:42.794Z,7.30
2022-10-11T14:25:12.163Z,7.90
2022-10-11T14:30:26.494Z,8.20
2022-10-11T14:32:59.745Z,9.70
2022-10-11T14:35:35.378Z,8.00
2022-10-11T14:38:04.181Z,10.90
2022-10-11T14:40:35.372Z,11.90
2022-10-11T14:43:06.010Z,8.90
2022-10-11T14:45:37.019Z,12.30
2022-10-11T14:48:10.592Z,9.90
2022-10-11T14:50:53.046Z,10.30
2022-10-11T14:53:22.709Z,7.70
2022-10-11T14:55:52.244Z,8.20
2022-10-11T14:58:20.800Z,12.00
2022-10-11T15:00:49.478Z,9.90
2022-10-11T15:03:18.070Z,8.30
2022-10-11T15:05:46.529Z,8.70
2022-10-11T15:08:15.378Z,11.80
2022-10-11T15:10:43.916Z,10.30
2022-10-11T15:13:12.582Z,10.90
2022-10-11T15:15:41.902Z,12.80
2022-10-11T15:18:13.831Z,12.10
2022-10-11T15:20:45.266Z,12.10
2022-10-11T15:23:14.191Z,12.60
2022-10-11T15:25:43.200Z,11.10
2022-10-11T15:28:29.686Z,15.20
2022-10-11T15:31:00.909Z,10.50
2022-10-11T15:33:29.461Z,15.00
2022-10-11T15:35:58.006Z,11.50
2022-10-11T15:38:26.691Z,13.70
2022-10-11T15:40:55.585Z,14.20
2022-10-11T15:43:25.179Z,12.80
2022-10-11T15:45:55.775Z,13.00
2022-10-11T15:50:55.664Z,17.00
2022-10-11T15:53:31.388Z,18.70
2022-10-11T15:56:08.745Z,17.50
2022-10-11T15:58:40.212Z,20.30
2022-10-11T16:01:15.296Z,18.50
2022-10-11T16:03:45.294Z,24.60
2022-10-11T16:08:42.728Z,25.60
2022-10-11T16:11:12.263Z,22.10
2022-10-11T16:13:41.372Z,18.40
2022-10-11T16:16:10.453Z,22.00
2022-10-11T16:18:39.973Z,23.70
2022-10-11T16:21:11.274Z,19.90
2022-10-11T16:23:39.740Z,23.50
2022-10-11T16:26:12.266Z,19.60
2022-10-11T16:28:42.280Z,24.00
2022-10-11T16:33:46.203Z,19.90
2022-10-11T16:36:40.827Z,22.30
2022-10-11T16:39:19.665Z,23.10
2022-10-11T16:41:48.212Z,25.30
2022-10-11T16:44:20.247Z,20.30
2022-10-11T16:46:49.296Z,23.90
2022-10-11T16:49:20.414Z,34.50
2022-10-11T16:51:50.370Z,37.60
2022-10-11T16:54:20.811Z,31.70
2022-10-11T16:56:50.366Z,37.40
2022-10-11T16:59:19.128Z,34.10
2022-10-11T17:01:47.934Z,28.70
2022-10-11T17:04:16.414Z,28.80
2022-10-11T17:06:45.199Z,27.80
2022-10-11T17:09:14.043Z,22.40
2022-10-11T17:11:45.353Z,27.00
2022-10-11T17:14:14.129Z,38.20
2022-10-11T17:16:43.116Z,46.80
2022-10-11T17:19:14.146Z,43.70
2022-10-11T17:21:43.040Z,33.90
2022-10-11T17:24:11.348Z,37.70
2022-10-11T17:26:39.908Z,31.80
2022-10-11T17:29:13.137Z,29.90
2022-10-11T17:31:48.090Z,31.10
2022-10-11T17:34:18.148Z,29.80
2022-10-11T17:36:47.204Z,36.50
2022-10-11T17:39:19.516Z,31.80
2022-10-11T17:41:48.792Z,38.30
2022-10-11T17:44:20.079Z,30.10
2022-10-11T17:46:49.305Z,27.20
2022-10-11T17:49:17.993Z,29.80
2022-10-11T17:51:46.595Z,29.30
2022-10-11T17:54:14.925Z,28.80
2022-10-11T17:56:43.389Z,28.30
2022-10-11T17:59:17.243Z,33.80
2022-10-11T18:01:48.441Z,30.00
2022-10-11T18:04:21.621Z,29.10
2022-10-11T18:06:49.935Z,33.80
2022-10-11T18:09:19.558Z,35.60
2022-10-11T18:11:50.963Z,33.30
2022-10-11T18:14:19.542Z,34.10
2022-10-11T18:16:48.153Z,35.60
2022-10-11T18:19:16.846Z,35.20
2022-10-11T18:21:48.137Z,35.30
2022-10-11T18:24:20.160Z,35.90
2022-10-11T18:26:48.753Z,32.10
2022-10-11T18:29:17.232Z,30.10
2022-10-11T18:31:49.761Z,44.10
2022-10-11T18:34:19.345Z,42.50
2022-10-11T18:36:48.361Z,55.70
2022-10-11T18:39:16.867Z,60.20
2022-10-11T18:41:45.326Z,56.00
2022-10-11T18:44:15.649Z,51.80
2022-10-11T18:46:44.949Z,42.60
2022-10-11T18:49:14.253Z,38.30
2022-10-11T18:51:43.171Z,38.10
2022-10-11T18:54:16.721Z,31.50
2022-10-11T18:56:48.873Z,34.50
2022-10-11T18:59:17.680Z,39.60
2022-10-11T19:01:46.739Z,34.20
2022-10-11T19:04:16.307Z,30.10
2022-10-11T19:06:50.831Z,37.80
2022-10-11T19:09:24.637Z,31.80
2022-10-11T19:11:55.339Z,26.90
2022-10-11T19:14:26.625Z,29.50
2022-10-11T19:16:56.522Z,29.00
2022-10-11T19:19:29.994Z,32.80
2022-10-11T19:21:59.711Z,28.40
2022-10-11T19:24:30.260Z,22.90
2022-10-11T19:27:02.532Z,24.30
2022-10-11T19:29:32.622Z,28.30
2022-10-11T19:32:03.847Z,33.60
2022-10-11T19:34:33.166Z,35.90
2022-10-11T19:37:03.684Z,37.80
2022-10-11T19:39:32.496Z,31.80
2022-10-11T19:42:01.519Z,30.00
2022-10-11T19:44:32.519Z,24.40
2022-10-11T19:47:05.411Z,36.10
2022-10-11T19:49:34.058Z,30.30
2022-10-11T19:52:02.717Z,40.90
2022-10-11T19:54:32.131Z,40.80
2022-10-11T19:57:00.622Z,34.60
2022-10-11T19:59:29.102Z,38.50
2022-10-11T20:01:57.629Z,35.60
2022-10-11T20:07:14.846Z,34.90
2022-10-11T20:09:43.609Z,36.80
2022-10-11T20:12:12.458Z,34.00
2022-10-11T20:14:41.079Z,32.90
2022-10-11T20:17:09.650Z,33.10
2022-10-11T20:19:38.347Z,32.10
2022-10-11T20:22:07.298Z,27.40
2022-10-11T20:24:35.709Z,31.10
2022-10-11T20:27:05.816Z,35.30
2022-10-11T20:29:34.845Z,29.70
2022-10-11T20:32:03.380Z,28.40
2022-10-11T20:34:32.268Z,26.60
2022-10-11T20:37:00.659Z,26.50
2022-10-11T20:39:29.303Z,26.10
2022-10-11T20:41:57.928Z,34.20
2022-10-11T20:44:26.628Z,37.30
2022-10-11T20:46:56.193Z,34.80
2022-10-11T20:49:26.215Z,33.20
2022-10-11T20:51:54.776Z,31.70
2022-10-11T20:54:23.311Z,47.20
2022-10-11T20:56:51.965Z,42.70
2022-10-11T20:59:20.920Z,38.60
2022-10-11T21:01:50.216Z,36.20
2022-10-11T21:04:20.922Z,28.40
2022-10-11T21:06:50.072Z,34.80
2022-10-11T21:09:19.393Z,48.10
2022-10-11T21:11:48.112Z,50.60
2022-10-11T21:14:16.960Z,49.10
2022-10-11T21:16:45.956Z,51.70
2022-10-11T21:19:15.967Z,43.60
2022-10-11T21:21:51.167Z,31.40
2022-10-11T21:24:22.679Z,34.20
2022-10-11T21:26:56.947Z,32.40
2022-10-11T21:29:28.836Z,36.50
2022-10-11T21:31:57.333Z,35.30
2022-10-11T21:34:25.771Z,36.80
2022-10-11T21:36:54.906Z,35.50
2022-10-11T21:39:23.729Z,30.50
2022-10-11T21:41:52.475Z,34.50
2022-10-11T21:44:21.073Z,41.10
2022-10-11T21:49:38.918Z,35.60
2022-10-11T21:52:08.223Z,37.40
2022-10-11T21:54:38.047Z,38.80
2022-10-11T21:57:06.909Z,35.90
2022-10-11T21:59:36.435Z,44.70
2022-10-11T22:02:06.428Z,46.30
2022-10-11T22:04:35.270Z,30.90
2022-10-11T22:07:04.145Z,36.30
2022-10-11T22:09:35.376Z,39.70
2022-10-11T22:12:05.412Z,32.50
2022-10-11T22:14:34.187Z,37.20
2022-10-11T22:17:02.969Z,41.30
2022-10-11T22:19:32.339Z,41.00
2022-10-11T22:22:01.936Z,36.70
2022-10-11T22:24:31.175Z,39.20
2022-10-11T22:27:00.779Z,38.20
2022-10-11T22:29:34.030Z,39.90
2022-10-11T22:32:04.796Z,40.90
2022-10-11T22:34:34.485Z,42.30
2022-10-11T22:37:03.751Z,38.00
2022-10-11T22:39:34.365Z,39.50
2022-10-11T22:44:34.299Z,34.40
2022-10-11T22:49:34.407Z,33.60
2022-10-11T22:52:03.521Z,29.60
2022-10-11T22:54:33.047Z,25.90
2022-10-11T22:57:02.703Z,29.40
2022-10-11T22:59:33.693Z,29.40
2022-10-11T23:02:04.268Z,30.60
2022-10-11T23:04:33.947Z,32.30
2022-10-11T23:07:05.154Z,23.70
2022-10-11T23:09:35.193Z,30.70
2022-10-11T23:12:05.058Z,35.30
2022-10-11T23:14:34.081Z,32.50
2022-10-11T23:17:03.056Z,38.30
2022-10-11T23:19:32.137Z,35.30
2022-10-11T23:22:01.153Z,29.90
2022-10-11T23:24:31.232Z,32.20
2022-10-11T23:27:01.393Z,36.20
2022-10-11T23:29:32.469Z,37.30
2022-10-11T23:34:30.523Z,32.20
2022-10-11T23:37:00.120Z,29.70
2022-10-11T23:39:30.618Z,32.60
2022-10-11T23:42:01.379Z,35.50
2022-10-11T23:44:30.783Z,34.80
2022-10-11T23:47:00.841Z,37.20
2022-10-11T23:49:31.612Z,33.90
2022-10-11T23:52:01.909Z,32.00
2022-10-11T23:54:31.130Z,34.90
2022-10-11T23:57:00.983Z,31.30
2022-10-11T23:59:29.697Z,23.00
